sensor_id;sensor_type;location;lat;lon;timestamp;P1;durP1;ratioP1;P2;durP2;ratioP2
62123;SDS011;48110;47.532;19.078;2024-02-23T00:01:39;3.62;;;2.10;;
62123;SDS011;48110;47.532;19.078;2024-02-23T00:04:42;3.65;;;2.30;;
62123;SDS011;48110;47.532;19.078;2024-02-23T00:07:45;4.20;;;2.25;;
62123;SDS011;48110;47.532;19.078;2024-02-23T00:10:48;3.65;;;2.30;;
62123;SDS011;48110;47.532;19.078;2024-02-23T00:13:51;4.15;;;2.12;;
62123;SDS011;48110;47.532;19.078;2024-02-23T00:16:53;5.55;;;2.40;;
62123;SDS011;48110;47.532;19.078;2024-02-23T00:19:56;3.72;;;2.12;;
62123;SDS011;48110;47.532;19.078;2024-02-23T00:22:59;3.92;;;2.42;;
62123;SDS011;48110;47.532;19.078;2024-02-23T00:26:02;3.67;;;2.30;;
62123;SDS011;48110;47.532;19.078;2024-02-23T00:29:05;2.50;;;1.92;;
62123;SDS011;48110;47.532;19.078;2024-02-23T00:32:08;4.45;;;2.10;;
62123;SDS011;48110;47.532;19.078;2024-02-23T00:35:11;5.60;;;2.12;;
62123;SDS011;48110;47.532;19.078;2024-02-23T00:38:13;5.72;;;2.53;;
62123;SDS011;48110;47.532;19.078;2024-02-23T00:41:16;4.95;;;2.80;;
62123;SDS011;48110;47.532;19.078;2024-02-23T00:44:19;4.00;;;2.72;;
62123;SDS011;48110;47.532;19.078;2024-02-23T00:47:22;4.68;;;2.50;;
62123;SDS011;48110;47.532;19.078;2024-02-23T00:50:25;3.53;;;2.40;;
62123;SDS011;48110;47.532;19.078;2024-02-23T00:53:32;5.20;;;2.70;;
62123;SDS011;48110;47.532;19.078;2024-02-23T00:56:35;4.40;;;2.65;;
62123;SDS011;48110;47.532;19.078;2024-02-23T00:59:52;3.50;;;2.40;;
62123;SDS011;48110;47.532;19.078;2024-02-23T01:02:55;5.70;;;2.83;;
62123;SDS011;48110;47.532;19.078;2024-02-23T01:05:58;6.07;;;2.70;;
62123;SDS011;48110;47.532;19.078;2024-02-23T01:09:00;6.40;;;2.78;;
62123;SDS011;48110;47.532;19.078;2024-02-23T01:12:03;3.15;;;2.65;;
62123;SDS011;48110;47.532;19.078;2024-02-23T01:15:06;4.50;;;2.80;;
62123;SDS011;48110;47.532;19.078;2024-02-23T01:18:09;5.28;;;2.87;;
62123;SDS011;48110;47.532;19.078;2024-02-23T01:21:12;5.07;;;2.60;;
62123;SDS011;48110;47.532;19.078;2024-02-23T01:24:16;4.87;;;2.50;;
62123;SDS011;48110;47.532;19.078;2024-02-23T01:27:18;5.87;;;2.40;;
62123;SDS011;48110;47.532;19.078;2024-02-23T01:30:21;6.07;;;2.60;;
62123;SDS011;48110;47.532;19.078;2024-02-23T01:33:24;6.55;;;2.70;;
62123;SDS011;48110;47.532;19.078;2024-02-23T01:36:27;3.70;;;2.30;;
62123;SDS011;48110;47.532;19.078;2024-02-23T01:39:30;3.78;;;2.70;;
62123;SDS011;48110;47.532;19.078;2024-02-23T01:42:32;5.03;;;2.85;;
62123;SDS011;48110;47.532;19.078;2024-02-23T01:45:35;4.43;;;2.75;;
62123;SDS011;48110;47.532;19.078;2024-02-23T01:48:38;4.60;;;2.83;;
62123;SDS011;48110;47.532;19.078;2024-02-23T01:51:41;4.97;;;3.00;;
62123;SDS011;48110;47.532;19.078;2024-02-23T01:54:44;5.32;;;2.90;;
62123;SDS011;48110;47.532;19.078;2024-02-23T01:57:47;4.50;;;3.37;;
62123;SDS011;48110;47.532;19.078;2024-02-23T02:00:52;6.12;;;3.17;;
62123;SDS011;48110;47.532;19.078;2024-02-23T02:03:55;6.07;;;3.30;;
62123;SDS011;48110;47.532;19.078;2024-02-23T02:06:59;4.62;;;3.05;;
62123;SDS011;48110;47.532;19.078;2024-02-23T02:10:02;5.62;;;3.35;;
62123;SDS011;48110;47.532;19.078;2024-02-23T02:13:08;7.05;;;3.22;;
62123;SDS011;48110;47.532;19.078;2024-02-23T02:16:11;7.15;;;3.50;;
62123;SDS011;48110;47.532;19.078;2024-02-23T02:19:14;3.67;;;3.03;;
62123;SDS011;48110;47.532;19.078;2024-02-23T02:22:16;6.12;;;3.42;;
62123;SDS011;48110;47.532;19.078;2024-02-23T02:25:19;5.35;;;2.90;;
62123;SDS011;48110;47.532;19.078;2024-02-23T02:28:22;4.62;;;3.20;;
62123;SDS011;48110;47.532;19.078;2024-02-23T02:31:26;5.43;;;3.30;;
62123;SDS011;48110;47.532;19.078;2024-02-23T02:34:29;6.53;;;2.97;;
62123;SDS011;48110;47.532;19.078;2024-02-23T02:37:32;6.90;;;3.20;;
62123;SDS011;48110;47.532;19.078;2024-02-23T02:40:34;6.75;;;3.35;;
62123;SDS011;48110;47.532;19.078;2024-02-23T02:43:37;5.35;;;3.22;;
62123;SDS011;48110;47.532;19.078;2024-02-23T02:46:40;8.05;;;3.53;;
62123;SDS011;48110;47.532;19.078;2024-02-23T02:49:44;7.75;;;3.50;;
62123;SDS011;48110;47.532;19.078;2024-02-23T02:52:46;5.03;;;3.42;;
62123;SDS011;48110;47.532;19.078;2024-02-23T02:55:49;6.82;;;3.72;;
62123;SDS011;48110;47.532;19.078;2024-02-23T02:58:52;6.28;;;3.80;;
62123;SDS011;48110;47.532;19.078;2024-02-23T03:01:55;5.95;;;3.45;;
62123;SDS011;48110;47.532;19.078;2024-02-23T03:04:59;5.10;;;3.55;;
62123;SDS011;48110;47.532;19.078;2024-02-23T03:08:02;7.45;;;3.80;;
62123;SDS011;48110;47.532;19.078;2024-02-23T03:11:05;6.03;;;3.75;;
62123;SDS011;48110;47.532;19.078;2024-02-23T03:14:08;6.57;;;3.87;;
62123;SDS011;48110;47.532;19.078;2024-02-23T03:17:12;6.65;;;3.72;;
62123;SDS011;48110;47.532;19.078;2024-02-23T03:20:15;6.25;;;4.22;;
62123;SDS011;48110;47.532;19.078;2024-02-23T03:23:18;7.93;;;4.22;;
62123;SDS011;48110;47.532;19.078;2024-02-23T03:26:21;8.75;;;4.20;;
62123;SDS011;48110;47.532;19.078;2024-02-23T03:29:24;7.18;;;4.47;;
62123;SDS011;48110;47.532;19.078;2024-02-23T03:32:27;8.25;;;4.25;;
62123;SDS011;48110;47.532;19.078;2024-02-23T03:35:30;8.10;;;4.53;;
62123;SDS011;48110;47.532;19.078;2024-02-23T03:38:33;8.25;;;4.45;;
62123;SDS011;48110;47.532;19.078;2024-02-23T03:41:37;6.55;;;4.18;;
62123;SDS011;48110;47.532;19.078;2024-02-23T03:44:39;6.30;;;4.50;;
62123;SDS011;48110;47.532;19.078;2024-02-23T03:47:44;6.28;;;4.18;;
62123;SDS011;48110;47.532;19.078;2024-02-23T03:50:47;8.50;;;5.10;;
62123;SDS011;48110;47.532;19.078;2024-02-23T03:53:49;7.28;;;4.47;;
62123;SDS011;48110;47.532;19.078;2024-02-23T03:56:52;8.05;;;5.00;;
62123;SDS011;48110;47.532;19.078;2024-02-23T03:59:55;9.02;;;5.00;;
62123;SDS011;48110;47.532;19.078;2024-02-23T04:02:58;10.15;;;4.90;;
62123;SDS011;48110;47.532;19.078;2024-02-23T04:06:01;5.72;;;4.80;;
62123;SDS011;48110;47.532;19.078;2024-02-23T04:09:04;5.47;;;4.60;;
62123;SDS011;48110;47.532;19.078;2024-02-23T04:12:08;7.53;;;4.37;;
62123;SDS011;48110;47.532;19.078;2024-02-23T04:15:10;7.82;;;4.32;;
62123;SDS011;48110;47.532;19.078;2024-02-23T04:18:13;8.27;;;4.45;;
62123;SDS011;48110;47.532;19.078;2024-02-23T04:21:16;8.13;;;4.10;;
62123;SDS011;48110;47.532;19.078;2024-02-23T04:24:19;7.18;;;3.50;;
62123;SDS011;48110;47.532;19.078;2024-02-23T04:27:24;6.55;;;3.87;;
62123;SDS011;48110;47.532;19.078;2024-02-23T04:30:26;5.18;;;3.53;;
62123;SDS011;48110;47.532;19.078;2024-02-23T04:33:29;5.43;;;3.75;;
62123;SDS011;48110;47.532;19.078;2024-02-23T04:36:32;5.25;;;3.60;;
62123;SDS011;48110;47.532;19.078;2024-02-23T04:39:35;4.40;;;3.55;;
62123;SDS011;48110;47.532;19.078;2024-02-23T04:42:38;7.20;;;3.53;;
62123;SDS011;48110;47.532;19.078;2024-02-23T04:45:41;5.78;;;3.20;;
62123;SDS011;48110;47.532;19.078;2024-02-23T04:48:43;6.55;;;3.62;;
62123;SDS011;48110;47.532;19.078;2024-02-23T04:51:46;6.20;;;3.65;;
62123;SDS011;48110;47.532;19.078;2024-02-23T04:54:49;5.60;;;3.42;;
62123;SDS011;48110;47.532;19.078;2024-02-23T04:57:51;5.53;;;3.53;;
62123;SDS011;48110;47.532;19.078;2024-02-23T05:00:54;4.40;;;3.40;;
62123;SDS011;48110;47.532;19.078;2024-02-23T05:03:57;4.20;;;3.08;;
62123;SDS011;48110;47.532;19.078;2024-02-23T05:07:00;7.07;;;3.30;;
62123;SDS011;48110;47.532;19.078;2024-02-23T05:10:04;7.85;;;3.40;;
62123;SDS011;48110;47.532;19.078;2024-02-23T05:13:07;5.65;;;3.05;;
62123;SDS011;48110;47.532;19.078;2024-02-23T05:16:10;5.22;;;3.10;;
62123;SDS011;48110;47.532;19.078;2024-02-23T05:19:13;5.10;;;2.70;;
62123;SDS011;48110;47.532;19.078;2024-02-23T05:22:15;4.90;;;2.80;;
62123;SDS011;48110;47.532;19.078;2024-02-23T05:25:18;3.58;;;2.60;;
62123;SDS011;48110;47.532;19.078;2024-02-23T05:28:21;4.65;;;2.75;;
62123;SDS011;48110;47.532;19.078;2024-02-23T05:31:45;3.85;;;2.30;;
62123;SDS011;48110;47.532;19.078;2024-02-23T05:34:48;3.97;;;2.40;;
62123;SDS011;48110;47.532;19.078;2024-02-23T05:37:54;3.58;;;2.50;;
62123;SDS011;48110;47.532;19.078;2024-02-23T05:40:57;4.28;;;2.30;;
62123;SDS011;48110;47.532;19.078;2024-02-23T05:44:00;5.37;;;2.90;;
62123;SDS011;48110;47.532;19.078;2024-02-23T05:47:03;5.37;;;2.83;;
62123;SDS011;48110;47.532;19.078;2024-02-23T05:50:08;5.78;;;2.65;;
62123;SDS011;48110;47.532;19.078;2024-02-23T05:53:14;4.37;;;2.70;;
62123;SDS011;48110;47.532;19.078;2024-02-23T05:56:17;4.55;;;2.92;;
62123;SDS011;48110;47.532;19.078;2024-02-23T05:59:20;3.05;;;2.42;;
62123;SDS011;48110;47.532;19.078;2024-02-23T06:02:24;4.28;;;3.00;;
62123;SDS011;48110;47.532;19.078;2024-02-23T06:05:27;9.25;;;3.60;;
62123;SDS011;48110;47.532;19.078;2024-02-23T06:08:30;4.90;;;2.70;;
62123;SDS011;48110;47.532;19.078;2024-02-23T06:11:33;5.10;;;2.78;;
62123;SDS011;48110;47.532;19.078;2024-02-23T06:14:36;7.87;;;3.50;;
62123;SDS011;48110;47.532;19.078;2024-02-23T06:17:39;4.00;;;2.90;;
62123;SDS011;48110;47.532;19.078;2024-02-23T06:20:43;5.30;;;3.50;;
62123;SDS011;48110;47.532;19.078;2024-02-23T06:23:46;6.28;;;3.00;;
62123;SDS011;48110;47.532;19.078;2024-02-23T06:26:49;5.40;;;3.72;;
62123;SDS011;48110;47.532;19.078;2024-02-23T06:29:52;6.45;;;3.50;;
62123;SDS011;48110;47.532;19.078;2024-02-23T06:32:54;6.22;;;3.95;;
62123;SDS011;48110;47.532;19.078;2024-02-23T06:35:57;8.43;;;3.95;;
62123;SDS011;48110;47.532;19.078;2024-02-23T06:39:00;5.65;;;3.92;;
62123;SDS011;48110;47.532;19.078;2024-02-23T06:42:03;6.75;;;4.20;;
62123;SDS011;48110;47.532;19.078;2024-02-23T06:45:07;6.95;;;4.50;;
62123;SDS011;48110;47.532;19.078;2024-02-23T06:48:10;7.40;;;4.60;;
62123;SDS011;48110;47.532;19.078;2024-02-23T06:51:13;6.80;;;4.43;;
62123;SDS011;48110;47.532;19.078;2024-02-23T06:54:18;10.25;;;5.70;;
62123;SDS011;48110;47.532;19.078;2024-02-23T06:57:20;8.88;;;5.10;;
62123;SDS011;48110;47.532;19.078;2024-02-23T07:00:25;7.07;;;5.00;;
62123;SDS011;48110;47.532;19.078;2024-02-23T07:03:27;9.82;;;5.25;;
62123;SDS011;48110;47.532;19.078;2024-02-23T07:06:30;9.15;;;5.28;;
62123;SDS011;48110;47.532;19.078;2024-02-23T07:09:35;7.55;;;4.87;;
62123;SDS011;48110;47.532;19.078;2024-02-23T07:12:38;10.85;;;5.18;;
62123;SDS011;48110;47.532;19.078;2024-02-23T07:15:41;7.40;;;5.22;;
62123;SDS011;48110;47.532;19.078;2024-02-23T07:18:44;7.12;;;5.25;;
62123;SDS011;48110;47.532;19.078;2024-02-23T07:21:46;9.15;;;5.78;;
62123;SDS011;48110;47.532;19.078;2024-02-23T07:24:49;9.75;;;5.53;;
62123;SDS011;48110;47.532;19.078;2024-02-23T07:27:52;6.97;;;5.25;;
62123;SDS011;48110;47.532;19.078;2024-02-23T07:30:55;9.90;;;5.53;;
62123;SDS011;48110;47.532;19.078;2024-02-23T07:33:58;8.95;;;5.22;;
62123;SDS011;48110;47.532;19.078;2024-02-23T07:37:02;11.63;;;5.53;;
62123;SDS011;48110;47.532;19.078;2024-02-23T07:40:06;8.15;;;5.70;;
62123;SDS011;48110;47.532;19.078;2024-02-23T07:43:10;9.18;;;5.93;;
62123;SDS011;48110;47.532;19.078;2024-02-23T07:46:13;7.15;;;5.30;;
62123;SDS011;48110;47.532;19.078;2024-02-23T07:49:17;10.18;;;5.90;;
62123;SDS011;48110;47.532;19.078;2024-02-23T07:52:20;11.02;;;5.60;;
62123;SDS011;48110;47.532;19.078;2024-02-23T07:55:25;10.20;;;5.75;;
62123;SDS011;48110;47.532;19.078;2024-02-23T07:58:28;11.98;;;5.90;;
62123;SDS011;48110;47.532;19.078;2024-02-23T08:01:31;11.32;;;5.85;;
62123;SDS011;48110;47.532;19.078;2024-02-23T08:04:34;8.10;;;5.05;;
62123;SDS011;48110;47.532;19.078;2024-02-23T08:07:37;8.60;;;5.72;;
62123;SDS011;48110;47.532;19.078;2024-02-23T08:10:40;8.07;;;5.75;;
62123;SDS011;48110;47.532;19.078;2024-02-23T08:13:42;7.90;;;5.50;;
62123;SDS011;48110;47.532;19.078;2024-02-23T08:16:45;7.90;;;5.20;;
62123;SDS011;48110;47.532;19.078;2024-02-23T08:19:48;11.55;;;5.50;;
62123;SDS011;48110;47.532;19.078;2024-02-23T08:22:51;9.65;;;5.20;;
62123;SDS011;48110;47.532;19.078;2024-02-23T08:25:54;9.20;;;5.57;;
62123;SDS011;48110;47.532;19.078;2024-02-23T08:28:59;10.60;;;5.65;;
62123;SDS011;48110;47.532;19.078;2024-02-23T08:32:01;10.95;;;6.00;;
62123;SDS011;48110;47.532;19.078;2024-02-23T08:35:04;9.02;;;5.50;;
62123;SDS011;48110;47.532;19.078;2024-02-23T08:38:07;7.57;;;5.47;;
62123;SDS011;48110;47.532;19.078;2024-02-23T08:41:11;7.40;;;5.03;;
62123;SDS011;48110;47.532;19.078;2024-02-23T08:44:14;9.68;;;5.25;;
62123;SDS011;48110;47.532;19.078;2024-02-23T08:47:17;8.18;;;5.78;;
62123;SDS011;48110;47.532;19.078;2024-02-23T08:50:20;9.75;;;5.60;;
62123;SDS011;48110;47.532;19.078;2024-02-23T08:53:23;11.32;;;5.78;;
62123;SDS011;48110;47.532;19.078;2024-02-23T08:56:26;8.57;;;5.47;;
62123;SDS011;48110;47.532;19.078;2024-02-23T08:59:29;10.80;;;5.47;;
62123;SDS011;48110;47.532;19.078;2024-02-23T09:02:31;9.50;;;6.85;;
62123;SDS011;48110;47.532;19.078;2024-02-23T09:05:38;8.45;;;5.65;;
62123;SDS011;48110;47.532;19.078;2024-02-23T09:08:41;8.15;;;5.70;;
62123;SDS011;48110;47.532;19.078;2024-02-23T09:11:44;6.68;;;5.32;;
62123;SDS011;48110;47.532;19.078;2024-02-23T09:14:46;7.47;;;5.12;;
62123;SDS011;48110;47.532;19.078;2024-02-23T09:17:50;8.07;;;5.45;;
62123;SDS011;48110;47.532;19.078;2024-02-23T09:20:53;8.27;;;4.97;;
62123;SDS011;48110;47.532;19.078;2024-02-23T09:23:56;9.38;;;5.20;;
62123;SDS011;48110;47.532;19.078;2024-02-23T09:26:58;12.80;;;5.10;;
62123;SDS011;48110;47.532;19.078;2024-02-23T09:30:01;10.38;;;5.20;;
62123;SDS011;48110;47.532;19.078;2024-02-23T09:33:04;8.50;;;4.80;;
62123;SDS011;48110;47.532;19.078;2024-02-23T09:36:08;8.15;;;4.62;;
62123;SDS011;48110;47.532;19.078;2024-02-23T09:39:12;10.02;;;4.62;;
62123;SDS011;48110;47.532;19.078;2024-02-23T09:42:14;6.95;;;4.57;;
62123;SDS011;48110;47.532;19.078;2024-02-23T09:45:17;7.00;;;4.72;;
62123;SDS011;48110;47.532;19.078;2024-02-23T09:48:20;6.45;;;4.60;;
62123;SDS011;48110;47.532;19.078;2024-02-23T09:51:25;8.82;;;5.00;;
62123;SDS011;48110;47.532;19.078;2024-02-23T09:54:28;9.10;;;4.80;;
62123;SDS011;48110;47.532;19.078;2024-02-23T09:57:30;7.53;;;4.78;;
62123;SDS011;48110;47.532;19.078;2024-02-23T10:00:34;5.30;;;3.72;;
62123;SDS011;48110;47.532;19.078;2024-02-23T10:03:39;8.32;;;4.22;;
62123;SDS011;48110;47.532;19.078;2024-02-23T10:06:42;6.43;;;4.80;;
62123;SDS011;48110;47.532;19.078;2024-02-23T10:09:45;9.45;;;4.50;;
62123;SDS011;48110;47.532;19.078;2024-02-23T10:12:48;8.00;;;4.32;;
62123;SDS011;48110;47.532;19.078;2024-02-23T10:15:52;5.72;;;4.15;;
62123;SDS011;48110;47.532;19.078;2024-02-23T10:19:15;7.43;;;3.92;;
62123;SDS011;48110;47.532;19.078;2024-02-23T10:22:20;8.27;;;4.43;;
62123;SDS011;48110;47.532;19.078;2024-02-23T10:25:24;8.90;;;4.45;;
62123;SDS011;48110;47.532;19.078;2024-02-23T10:28:27;11.00;;;4.85;;
62123;SDS011;48110;47.532;19.078;2024-02-23T10:31:32;6.80;;;4.40;;
62123;SDS011;48110;47.532;19.078;2024-02-23T10:34:39;6.25;;;4.30;;
62123;SDS011;48110;47.532;19.078;2024-02-23T10:37:50;8.65;;;4.03;;
62123;SDS011;48110;47.532;19.078;2024-02-23T10:40:55;7.00;;;4.50;;
62123;SDS011;48110;47.532;19.078;2024-02-23T10:44:00;6.93;;;4.15;;
62123;SDS011;48110;47.532;19.078;2024-02-23T10:47:08;6.95;;;4.10;;
62123;SDS011;48110;47.532;19.078;2024-02-23T10:50:11;6.75;;;3.60;;
62123;SDS011;48110;47.532;19.078;2024-02-23T10:53:19;8.05;;;3.80;;
62123;SDS011;48110;47.532;19.078;2024-02-23T10:56:23;6.82;;;4.00;;
62123;SDS011;48110;47.532;19.078;2024-02-23T10:59:28;8.02;;;4.45;;
62123;SDS011;48110;47.532;19.078;2024-02-23T11:02:31;9.18;;;4.05;;
62123;SDS011;48110;47.532;19.078;2024-02-23T11:05:38;6.28;;;4.07;;
62123;SDS011;48110;47.532;19.078;2024-02-23T11:08:41;6.50;;;4.00;;
62123;SDS011;48110;47.532;19.078;2024-02-23T11:11:57;8.07;;;4.10;;
62123;SDS011;48110;47.532;19.078;2024-02-23T11:15:02;6.05;;;4.00;;
62123;SDS011;48110;47.532;19.078;2024-02-23T11:21:51;7.55;;;4.40;;
62123;SDS011;48110;47.532;19.078;2024-02-23T11:28:01;6.25;;;3.95;;
62123;SDS011;48110;47.532;19.078;2024-02-23T11:31:10;6.07;;;4.03;;
62123;SDS011;48110;47.532;19.078;2024-02-23T11:34:14;6.12;;;4.57;;
62123;SDS011;48110;47.532;19.078;2024-02-23T11:37:28;5.87;;;3.85;;
62123;SDS011;48110;47.532;19.078;2024-02-23T11:40:32;5.47;;;3.55;;
62123;SDS011;48110;47.532;19.078;2024-02-23T11:43:36;6.15;;;3.55;;
62123;SDS011;48110;47.532;19.078;2024-02-23T11:46:40;4.90;;;3.45;;
62123;SDS011;48110;47.532;19.078;2024-02-23T11:49:43;6.28;;;3.62;;
62123;SDS011;48110;47.532;19.078;2024-02-23T11:52:46;6.45;;;3.58;;
62123;SDS011;48110;47.532;19.078;2024-02-23T11:55:50;7.45;;;3.22;;
62123;SDS011;48110;47.532;19.078;2024-02-23T11:58:53;6.57;;;3.45;;
62123;SDS011;48110;47.532;19.078;2024-02-23T12:01:57;5.18;;;3.60;;
62123;SDS011;48110;47.532;19.078;2024-02-23T12:05:01;6.10;;;3.47;;
62123;SDS011;48110;47.532;19.078;2024-02-23T12:08:05;5.53;;;2.97;;
62123;SDS011;48110;47.532;19.078;2024-02-23T12:11:08;7.50;;;3.90;;
62123;SDS011;48110;47.532;19.078;2024-02-23T12:14:12;6.87;;;3.75;;
62123;SDS011;48110;47.532;19.078;2024-02-23T12:17:16;5.47;;;3.55;;
62123;SDS011;48110;47.532;19.078;2024-02-23T12:20:19;5.97;;;3.70;;
62123;SDS011;48110;47.532;19.078;2024-02-23T12:23:23;5.93;;;3.80;;
62123;SDS011;48110;47.532;19.078;2024-02-23T12:26:26;6.93;;;3.70;;
62123;SDS011;48110;47.532;19.078;2024-02-23T12:29:29;5.45;;;3.95;;
62123;SDS011;48110;47.532;19.078;2024-02-23T12:32:32;6.60;;;3.37;;
62123;SDS011;48110;47.532;19.078;2024-02-23T12:35:35;11.27;;;3.60;;
62123;SDS011;48110;47.532;19.078;2024-02-23T12:38:38;6.00;;;3.40;;
62123;SDS011;48110;47.532;19.078;2024-02-23T12:41:42;7.12;;;3.45;;
62123;SDS011;48110;47.532;19.078;2024-02-23T12:44:45;8.70;;;3.60;;
62123;SDS011;48110;47.532;19.078;2024-02-23T12:47:47;4.85;;;3.60;;
62123;SDS011;48110;47.532;19.078;2024-02-23T12:50:51;5.85;;;3.75;;
62123;SDS011;48110;47.532;19.078;2024-02-23T12:53:54;9.27;;;4.40;;
62123;SDS011;48110;47.532;19.078;2024-02-23T12:56:58;6.70;;;3.90;;
62123;SDS011;48110;47.532;19.078;2024-02-23T13:00:01;12.63;;;4.35;;
62123;SDS011;48110;47.532;19.078;2024-02-23T13:03:04;7.95;;;4.82;;
62123;SDS011;48110;47.532;19.078;2024-02-23T13:06:08;7.47;;;5.10;;
62123;SDS011;48110;47.532;19.078;2024-02-23T13:09:11;7.15;;;4.82;;
62123;SDS011;48110;47.532;19.078;2024-02-23T13:12:15;9.88;;;5.45;;
62123;SDS011;48110;47.532;19.078;2024-02-23T13:15:18;11.02;;;5.53;;
62123;SDS011;48110;47.532;19.078;2024-02-23T13:18:23;9.63;;;5.45;;
62123;SDS011;48110;47.532;19.078;2024-02-23T13:21:26;8.18;;;5.35;;
62123;SDS011;48110;47.532;19.078;2024-02-23T13:24:29;10.80;;;6.10;;
62123;SDS011;48110;47.532;19.078;2024-02-23T13:27:31;9.77;;;5.45;;
62123;SDS011;48110;47.532;19.078;2024-02-23T13:30:35;9.95;;;6.43;;
62123;SDS011;48110;47.532;19.078;2024-02-23T13:33:39;11.38;;;6.30;;
62123;SDS011;48110;47.532;19.078;2024-02-23T13:36:42;11.48;;;6.57;;
62123;SDS011;48110;47.532;19.078;2024-02-23T13:39:45;12.05;;;6.95;;
62123;SDS011;48110;47.532;19.078;2024-02-23T13:42:48;10.55;;;6.55;;
62123;SDS011;48110;47.532;19.078;2024-02-23T13:45:55;14.10;;;7.82;;
62123;SDS011;48110;47.532;19.078;2024-02-23T13:49:02;11.60;;;8.05;;
62123;SDS011;48110;47.532;19.078;2024-02-23T13:52:07;12.55;;;6.80;;
62123;SDS011;48110;47.532;19.078;2024-02-23T13:55:10;11.02;;;7.53;;
62123;SDS011;48110;47.532;19.078;2024-02-23T13:58:13;12.65;;;8.02;;
62123;SDS011;48110;47.532;19.078;2024-02-23T14:01:16;13.15;;;7.70;;
62123;SDS011;48110;47.532;19.078;2024-02-23T14:04:19;12.13;;;7.32;;
62123;SDS011;48110;47.532;19.078;2024-02-23T14:07:22;11.00;;;7.57;;
62123;SDS011;48110;47.532;19.078;2024-02-23T14:10:24;11.85;;;7.45;;
62123;SDS011;48110;47.532;19.078;2024-02-23T14:13:27;14.30;;;8.20;;
62123;SDS011;48110;47.532;19.078;2024-02-23T14:16:30;10.40;;;7.37;;
62123;SDS011;48110;47.532;19.078;2024-02-23T14:19:32;10.57;;;7.07;;
62123;SDS011;48110;47.532;19.078;2024-02-23T14:22:38;12.48;;;7.37;;
62123;SDS011;48110;47.532;19.078;2024-02-23T14:25:40;14.40;;;7.85;;
62123;SDS011;48110;47.532;19.078;2024-02-23T14:28:43;12.15;;;7.80;;
62123;SDS011;48110;47.532;19.078;2024-02-23T14:31:46;16.15;;;7.65;;
62123;SDS011;48110;47.532;19.078;2024-02-23T14:34:49;9.80;;;7.57;;
62123;SDS011;48110;47.532;19.078;2024-02-23T14:37:52;14.80;;;8.32;;
62123;SDS011;48110;47.532;19.078;2024-02-23T14:40:55;15.15;;;8.68;;
62123;SDS011;48110;47.532;19.078;2024-02-23T14:43:57;12.27;;;8.35;;
62123;SDS011;48110;47.532;19.078;2024-02-23T14:47:00;11.12;;;8.93;;
62123;SDS011;48110;47.532;19.078;2024-02-23T14:50:03;20.40;;;8.63;;
62123;SDS011;48110;47.532;19.078;2024-02-23T14:53:07;17.27;;;9.30;;
62123;SDS011;48110;47.532;19.078;2024-02-23T14:56:11;17.92;;;9.10;;
62123;SDS011;48110;47.532;19.078;2024-02-23T14:59:14;14.87;;;8.93;;
62123;SDS011;48110;47.532;19.078;2024-02-23T15:02:20;17.25;;;9.20;;
62123;SDS011;48110;47.532;19.078;2024-02-23T15:05:23;16.50;;;9.43;;
62123;SDS011;48110;47.532;19.078;2024-02-23T15:08:27;18.33;;;9.35;;
62123;SDS011;48110;47.532;19.078;2024-02-23T15:11:30;17.45;;;9.60;;
62123;SDS011;48110;47.532;19.078;2024-02-23T15:14:34;14.07;;;9.48;;
62123;SDS011;48110;47.532;19.078;2024-02-23T15:17:37;17.50;;;9.82;;
62123;SDS011;48110;47.532;19.078;2024-02-23T15:20:40;15.43;;;9.43;;
62123;SDS011;48110;47.532;19.078;2024-02-23T15:23:43;17.95;;;10.00;;
62123;SDS011;48110;47.532;19.078;2024-02-23T15:26:47;16.62;;;10.20;;
62123;SDS011;48110;47.532;19.078;2024-02-23T15:29:50;14.82;;;10.75;;
62123;SDS011;48110;47.532;19.078;2024-02-23T15:32:53;15.63;;;10.10;;
62123;SDS011;48110;47.532;19.078;2024-02-23T15:35:56;18.70;;;10.40;;
62123;SDS011;48110;47.532;19.078;2024-02-23T15:38:59;27.15;;;10.48;;
62123;SDS011;48110;47.532;19.078;2024-02-23T15:42:08;14.35;;;10.10;;
62123;SDS011;48110;47.532;19.078;2024-02-23T15:45:11;14.57;;;9.77;;
62123;SDS011;48110;47.532;19.078;2024-02-23T15:48:14;21.52;;;10.57;;
62123;SDS011;48110;47.532;19.078;2024-02-23T15:51:16;17.33;;;9.98;;
62123;SDS011;48110;47.532;19.078;2024-02-23T15:54:39;17.30;;;10.02;;
62123;SDS011;48110;47.532;19.078;2024-02-23T15:57:42;18.90;;;10.60;;
62123;SDS011;48110;47.532;19.078;2024-02-23T16:00:45;19.48;;;10.30;;
62123;SDS011;48110;47.532;19.078;2024-02-23T16:03:48;23.48;;;11.25;;
62123;SDS011;48110;47.532;19.078;2024-02-23T16:06:51;16.35;;;10.35;;
62123;SDS011;48110;47.532;19.078;2024-02-23T16:09:55;18.30;;;10.68;;
62123;SDS011;48110;47.532;19.078;2024-02-23T16:12:57;18.62;;;11.32;;
62123;SDS011;48110;47.532;19.078;2024-02-23T16:16:10;19.73;;;10.77;;
62123;SDS011;48110;47.532;19.078;2024-02-23T16:19:13;21.58;;;11.80;;
62123;SDS011;48110;47.532;19.078;2024-02-23T16:22:16;18.50;;;10.98;;
62123;SDS011;48110;47.532;19.078;2024-02-23T16:25:19;16.45;;;10.93;;
62123;SDS011;48110;47.532;19.078;2024-02-23T16:28:22;17.15;;;11.20;;
62123;SDS011;48110;47.532;19.078;2024-02-23T16:31:25;16.40;;;11.25;;
62123;SDS011;48110;47.532;19.078;2024-02-23T16:34:28;16.67;;;11.40;;
62123;SDS011;48110;47.532;19.078;2024-02-23T16:37:30;20.45;;;12.10;;
62123;SDS011;48110;47.532;19.078;2024-02-23T16:40:35;17.60;;;11.52;;
62123;SDS011;48110;47.532;19.078;2024-02-23T16:43:38;17.98;;;11.68;;
62123;SDS011;48110;47.532;19.078;2024-02-23T16:46:41;17.90;;;12.23;;
62123;SDS011;48110;47.532;19.078;2024-02-23T16:49:43;15.38;;;10.50;;
62123;SDS011;48110;47.532;19.078;2024-02-23T16:52:46;17.75;;;11.70;;
62123;SDS011;48110;47.532;19.078;2024-02-23T16:55:49;19.15;;;11.55;;
62123;SDS011;48110;47.532;19.078;2024-02-23T16:58:52;16.25;;;11.23;;
62123;SDS011;48110;47.532;19.078;2024-02-23T17:01:56;18.92;;;11.35;;
62123;SDS011;48110;47.532;19.078;2024-02-23T17:05:00;17.58;;;12.10;;
62123;SDS011;48110;47.532;19.078;2024-02-23T17:08:04;19.62;;;11.65;;
62123;SDS011;48110;47.532;19.078;2024-02-23T17:11:07;17.10;;;11.55;;
62123;SDS011;48110;47.532;19.078;2024-02-23T17:14:10;14.68;;;11.32;;
62123;SDS011;48110;47.532;19.078;2024-02-23T17:17:13;14.93;;;11.73;;
62123;SDS011;48110;47.532;19.078;2024-02-23T17:20:15;18.23;;;11.70;;
62123;SDS011;48110;47.532;19.078;2024-02-23T17:23:19;19.42;;;12.05;;
62123;SDS011;48110;47.532;19.078;2024-02-23T17:26:21;16.55;;;12.07;;
62123;SDS011;48110;47.532;19.078;2024-02-23T17:29:25;19.60;;;12.50;;
62123;SDS011;48110;47.532;19.078;2024-02-23T17:32:28;18.00;;;12.55;;
62123;SDS011;48110;47.532;19.078;2024-02-23T17:35:31;20.90;;;12.80;;
62123;SDS011;48110;47.532;19.078;2024-02-23T17:38:34;17.70;;;13.30;;
62123;SDS011;48110;47.532;19.078;2024-02-23T17:41:38;19.08;;;13.25;;
62123;SDS011;48110;47.532;19.078;2024-02-23T17:44:41;17.10;;;13.30;;
62123;SDS011;48110;47.532;19.078;2024-02-23T17:47:43;21.40;;;13.98;;
62123;SDS011;48110;47.532;19.078;2024-02-23T17:50:46;17.87;;;12.82;;
62123;SDS011;48110;47.532;19.078;2024-02-23T17:53:49;20.15;;;13.13;;
62123;SDS011;48110;47.532;19.078;2024-02-23T17:56:52;18.45;;;13.02;;
62123;SDS011;48110;47.532;19.078;2024-02-23T17:59:55;23.90;;;13.48;;
62123;SDS011;48110;47.532;19.078;2024-02-23T18:02:57;21.00;;;14.25;;
62123;SDS011;48110;47.532;19.078;2024-02-23T18:06:02;21.40;;;13.93;;
62123;SDS011;48110;47.532;19.078;2024-02-23T18:09:05;23.58;;;14.95;;